sensor_id;sensor_type;location;lat;lon;timestamp;temperature;humidity
16829;DHT22;8531;48.078;11.968;2024-02-23T00:02:04;8.00;99.90
16829;DHT22;8531;48.078;11.968;2024-02-23T00:04:30;7.90;99.90
16829;DHT22;8531;48.078;11.968;2024-02-23T00:06:56;7.90;99.90
16829;DHT22;8531;48.078;11.968;2024-02-23T00:09:22;7.90;99.90
16829;DHT22;8531;48.078;11.968;2024-02-23T00:11:47;7.80;99.90
16829;DHT22;8531;48.078;11.968;2024-02-23T00:14:16;7.80;99.90
16829;DHT22;8531;48.078;11.968;2024-02-23T00:16:43;7.80;99.90
16829;DHT22;8531;48.078;11.968;2024-02-23T00:19:10;7.80;99.90
16829;DHT22;8531;48.078;11.968;2024-02-23T00:21:36;7.80;99.90
16829;DHT22;8531;48.078;11.968;2024-02-23T00:24:02;7.80;99.90
16829;DHT22;8531;48.078;11.968;2024-02-23T00:26:28;7.80;99.90
16829;DHT22;8531;48.078;11.968;2024-02-23T00:28:55;7.80;99.90
16829;DHT22;8531;48.078;11.968;2024-02-23T00:31:21;7.80;99.90
16829;DHT22;8531;48.078;11.968;2024-02-23T00:33:47;7.70;99.90
16829;DHT22;8531;48.078;11.968;2024-02-23T00:36:13;7.70;99.90
16829;DHT22;8531;48.078;11.968;2024-02-23T00:38:38;7.80;99.90
16829;DHT22;8531;48.078;11.968;2024-02-23T00:41:04;7.80;99.90
16829;DHT22;8531;48.078;11.968;2024-02-23T00:43:36;7.80;99.90
16829;DHT22;8531;48.078;11.968;2024-02-23T00:46:03;7.80;99.90
16829;DHT22;8531;48.078;11.968;2024-02-23T00:48:30;7.80;99.90
16829;DHT22;8531;48.078;11.968;2024-02-23T00:50:55;7.80;99.90
16829;DHT22;8531;48.078;11.968;2024-02-23T00:53:21;7.80;99.90
16829;DHT22;8531;48.078;11.968;2024-02-23T00:55:47;7.70;99.90
16829;DHT22;8531;48.078;11.968;2024-02-23T00:58:13;7.80;99.90
16829;DHT22;8531;48.078;11.968;2024-02-23T01:00:38;7.70;99.90
16829;DHT22;8531;48.078;11.968;2024-02-23T01:03:04;7.70;99.90
16829;DHT22;8531;48.078;11.968;2024-02-23T01:05:30;7.70;99.90
16829;DHT22;8531;48.078;11.968;2024-02-23T01:07:56;7.70;99.90
16829;DHT22;8531;48.078;11.968;2024-02-23T01:10:21;7.70;99.90
16829;DHT22;8531;48.078;11.968;2024-02-23T01:12:47;7.70;99.90
16829;DHT22;8531;48.078;11.968;2024-02-23T01:15:13;7.70;99.90
16829;DHT22;8531;48.078;11.968;2024-02-23T01:17:39;7.60;99.90
16829;DHT22;8531;48.078;11.968;2024-02-23T01:20:05;7.70;99.90
16829;DHT22;8531;48.078;11.968;2024-02-23T01:22:31;7.70;99.90
16829;DHT22;8531;48.078;11.968;2024-02-23T01:24:56;7.70;99.90
16829;DHT22;8531;48.078;11.968;2024-02-23T01:27:22;7.70;99.90
16829;DHT22;8531;48.078;11.968;2024-02-23T01:29:48;7.60;99.90
16829;DHT22;8531;48.078;11.968;2024-02-23T01:32:13;7.60;99.90
16829;DHT22;8531;48.078;11.968;2024-02-23T01:34:39;7.60;99.90
16829;DHT22;8531;48.078;11.968;2024-02-23T01:37:05;7.60;99.90
16829;DHT22;8531;48.078;11.968;2024-02-23T01:39:30;7.60;99.90
16829;DHT22;8531;48.078;11.968;2024-02-23T01:41:56;7.60;99.90
16829;DHT22;8531;48.078;11.968;2024-02-23T01:44:22;7.60;99.90
16829;DHT22;8531;48.078;11.968;2024-02-23T01:46:48;7.60;99.90
16829;DHT22;8531;48.078;11.968;2024-02-23T01:49:14;7.60;99.90
16829;DHT22;8531;48.078;11.968;2024-02-23T01:51:40;7.60;99.90
16829;DHT22;8531;48.078;11.968;2024-02-23T01:54:06;7.50;99.90
16829;DHT22;8531;48.078;11.968;2024-02-23T01:56:32;7.50;99.90
16829;DHT22;8531;48.078;11.968;2024-02-23T01:58:59;7.50;99.90
16829;DHT22;8531;48.078;11.968;2024-02-23T02:01:25;7.50;99.90
16829;DHT22;8531;48.078;11.968;2024-02-23T02:03:51;7.50;99.90
16829;DHT22;8531;48.078;11.968;2024-02-23T02:06:17;7.50;99.90
16829;DHT22;8531;48.078;11.968;2024-02-23T02:08:43;7.50;99.90
16829;DHT22;8531;48.078;11.968;2024-02-23T02:11:09;7.50;99.90
16829;DHT22;8531;48.078;11.968;2024-02-23T02:13:35;7.50;99.90
16829;DHT22;8531;48.078;11.968;2024-02-23T02:16:01;7.50;99.90
16829;DHT22;8531;48.078;11.968;2024-02-23T02:18:27;7.50;99.90
16829;DHT22;8531;48.078;11.968;2024-02-23T02:20:57;7.50;99.90
16829;DHT22;8531;48.078;11.968;2024-02-23T02:23:23;7.50;99.90
16829;DHT22;8531;48.078;11.968;2024-02-23T02:25:56;7.40;99.90
16829;DHT22;8531;48.078;11.968;2024-02-23T02:28:23;7.40;99.90
16829;DHT22;8531;48.078;11.968;2024-02-23T02:30:50;7.40;99.90
16829;DHT22;8531;48.078;11.968;2024-02-23T02:33:16;7.30;99.90
16829;DHT22;8531;48.078;11.968;2024-02-23T02:35:42;7.30;99.90
16829;DHT22;8531;48.078;11.968;2024-02-23T02:38:08;7.20;99.90
16829;DHT22;8531;48.078;11.968;2024-02-23T02:40:34;7.20;99.90
16829;DHT22;8531;48.078;11.968;2024-02-23T02:42:59;7.30;99.90
16829;DHT22;8531;48.078;11.968;2024-02-23T02:45:25;7.30;99.90
16829;DHT22;8531;48.078;11.968;2024-02-23T02:47:51;7.30;99.90
16829;DHT22;8531;48.078;11.968;2024-02-23T02:50:16;7.30;99.90
16829;DHT22;8531;48.078;11.968;2024-02-23T02:52:42;7.30;99.90
16829;DHT22;8531;48.078;11.968;2024-02-23T02:55:08;7.30;99.90
16829;DHT22;8531;48.078;11.968;2024-02-23T02:57:34;7.30;99.90
16829;DHT22;8531;48.078;11.968;2024-02-23T03:00:02;7.30;99.90
16829;DHT22;8531;48.078;11.968;2024-02-23T03:02:33;7.30;99.90
16829;DHT22;8531;48.078;11.968;2024-02-23T03:04:58;7.20;99.90
16829;DHT22;8531;48.078;11.968;2024-02-23T03:07:24;7.20;99.90
16829;DHT22;8531;48.078;11.968;2024-02-23T03:09:50;7.10;99.90
16829;DHT22;8531;48.078;11.968;2024-02-23T03:12:16;7.20;99.90
16829;DHT22;8531;48.078;11.968;2024-02-23T03:14:43;7.10;99.90
16829;DHT22;8531;48.078;11.968;2024-02-23T03:17:08;7.10;99.90
16829;DHT22;8531;48.078;11.968;2024-02-23T03:19:37;7.10;99.90
16829;DHT22;8531;48.078;11.968;2024-02-23T03:22:03;7.10;99.90
16829;DHT22;8531;48.078;11.968;2024-02-23T03:24:29;7.10;99.90
16829;DHT22;8531;48.078;11.968;2024-02-23T03:26:55;7.10;99.90
16829;DHT22;8531;48.078;11.968;2024-02-23T03:29:22;7.10;99.90
16829;DHT22;8531;48.078;11.968;2024-02-23T03:31:57;7.10;99.90
16829;DHT22;8531;48.078;11.968;2024-02-23T03:34:23;7.20;99.90
16829;DHT22;8531;48.078;11.968;2024-02-23T03:36:49;7.10;99.90
16829;DHT22;8531;48.078;11.968;2024-02-23T03:39:14;7.10;99.90
16829;DHT22;8531;48.078;11.968;2024-02-23T03:41:40;7.00;99.90
16829;DHT22;8531;48.078;11.968;2024-02-23T03:44:06;7.00;99.90
16829;DHT22;8531;48.078;11.968;2024-02-23T03:46:32;7.00;99.90
16829;DHT22;8531;48.078;11.968;2024-02-23T03:48:57;7.00;99.90
16829;DHT22;8531;48.078;11.968;2024-02-23T03:51:23;7.00;99.90
16829;DHT22;8531;48.078;11.968;2024-02-23T03:53:49;6.90;99.90
16829;DHT22;8531;48.078;11.968;2024-02-23T03:56:16;6.90;99.90
16829;DHT22;8531;48.078;11.968;2024-02-23T03:58:41;7.00;99.90
16829;DHT22;8531;48.078;11.968;2024-02-23T04:01:07;6.90;99.90
16829;DHT22;8531;48.078;11.968;2024-02-23T04:03:32;6.90;99.90
16829;DHT22;8531;48.078;11.968;2024-02-23T04:05:58;6.90;99.90
16829;DHT22;8531;48.078;11.968;2024-02-23T04:08:24;7.00;99.90
16829;DHT22;8531;48.078;11.968;2024-02-23T04:10:50;7.00;99.90
16829;DHT22;8531;48.078;11.968;2024-02-23T04:13:15;6.90;99.90
16829;DHT22;8531;48.078;11.968;2024-02-23T04:15:43;6.90;99.90
16829;DHT22;8531;48.078;11.968;2024-02-23T04:18:09;6.90;99.90
16829;DHT22;8531;48.078;11.968;2024-02-23T04:20:35;6.90;99.90
16829;DHT22;8531;48.078;11.968;2024-02-23T04:23:00;7.00;99.90
16829;DHT22;8531;48.078;11.968;2024-02-23T04:25:26;7.10;99.90
16829;DHT22;8531;48.078;11.968;2024-02-23T04:27:52;7.00;99.90
16829;DHT22;8531;48.078;11.968;2024-02-23T04:30:17;7.10;99.90
16829;DHT22;8531;48.078;11.968;2024-02-23T04:32:43;7.10;99.90
16829;DHT22;8531;48.078;11.968;2024-02-23T04:35:10;7.10;99.90
16829;DHT22;8531;48.078;11.968;2024-02-23T04:37:35;7.10;99.90
16829;DHT22;8531;48.078;11.968;2024-02-23T04:40:01;7.00;99.90
16829;DHT22;8531;48.078;11.968;2024-02-23T04:42:27;7.00;99.90
16829;DHT22;8531;48.078;11.968;2024-02-23T04:44:53;6.80;99.90
16829;DHT22;8531;48.078;11.968;2024-02-23T04:47:20;6.80;99.90
16829;DHT22;8531;48.078;11.968;2024-02-23T04:49:46;6.80;99.90
16829;DHT22;8531;48.078;11.968;2024-02-23T04:52:12;6.80;99.90
16829;DHT22;8531;48.078;11.968;2024-02-23T04:54:37;6.60;99.90
16829;DHT22;8531;48.078;11.968;2024-02-23T04:57:03;6.70;99.90
16829;DHT22;8531;48.078;11.968;2024-02-23T04:59:29;6.70;99.90
16829;DHT22;8531;48.078;11.968;2024-02-23T05:01:57;6.70;99.90
16829;DHT22;8531;48.078;11.968;2024-02-23T05:04:23;6.70;99.90
16829;DHT22;8531;48.078;11.968;2024-02-23T05:06:48;6.80;99.90
16829;DHT22;8531;48.078;11.968;2024-02-23T05:09:14;6.70;99.90
16829;DHT22;8531;48.078;11.968;2024-02-23T05:11:40;6.70;99.90
16829;DHT22;8531;48.078;11.968;2024-02-23T05:14:05;6.70;99.90
16829;DHT22;8531;48.078;11.968;2024-02-23T05:16:31;6.60;99.90
16829;DHT22;8531;48.078;11.968;2024-02-23T05:18:57;6.60;99.90
16829;DHT22;8531;48.078;11.968;2024-02-23T05:21:23;6.60;99.90
16829;DHT22;8531;48.078;11.968;2024-02-23T05:23:49;6.60;99.90
16829;DHT22;8531;48.078;11.968;2024-02-23T05:26:15;6.50;99.90
16829;DHT22;8531;48.078;11.968;2024-02-23T05:28:40;6.50;99.90
16829;DHT22;8531;48.078;11.968;2024-02-23T05:31:07;6.50;99.90
16829;DHT22;8531;48.078;11.968;2024-02-23T05:33:32;6.50;99.90
16829;DHT22;8531;48.078;11.968;2024-02-23T05:35:58;6.50;99.90
16829;DHT22;8531;48.078;11.968;2024-02-23T05:38:24;6.40;99.90
16829;DHT22;8531;48.078;11.968;2024-02-23T05:40:49;6.40;99.90
16829;DHT22;8531;48.078;11.968;2024-02-23T05:43:15;6.40;99.90
16829;DHT22;8531;48.078;11.968;2024-02-23T05:45:41;6.40;99.90
16829;DHT22;8531;48.078;11.968;2024-02-23T05:48:07;6.40;99.90
16829;DHT22;8531;48.078;11.968;2024-02-23T05:50:32;6.30;99.90
16829;DHT22;8531;48.078;11.968;2024-02-23T05:52:58;6.30;99.90
16829;DHT22;8531;48.078;11.968;2024-02-23T05:55:24;6.10;99.90
16829;DHT22;8531;48.078;11.968;2024-02-23T05:57:50;6.00;99.90
16829;DHT22;8531;48.078;11.968;2024-02-23T06:00:17;5.80;99.90
16829;DHT22;8531;48.078;11.968;2024-02-23T06:02:47;5.90;99.90
16829;DHT22;8531;48.078;11.968;2024-02-23T06:05:13;5.80;99.90
16829;DHT22;8531;48.078;11.968;2024-02-23T06:07:38;5.80;99.90
16829;DHT22;8531;48.078;11.968;2024-02-23T06:10:05;5.80;99.90
16829;DHT22;8531;48.078;11.968;2024-02-23T06:12:31;5.80;99.90
16829;DHT22;8531;48.078;11.968;2024-02-23T06:14:57;5.80;99.90
16829;DHT22;8531;48.078;11.968;2024-02-23T06:17:23;5.70;99.90
16829;DHT22;8531;48.078;11.968;2024-02-23T06:19:49;5.70;99.90
16829;DHT22;8531;48.078;11.968;2024-02-23T06:22:16;5.80;99.90
16829;DHT22;8531;48.078;11.968;2024-02-23T06:24:49;5.70;99.90
16829;DHT22;8531;48.078;11.968;2024-02-23T06:27:15;5.70;99.90
16829;DHT22;8531;48.078;11.968;2024-02-23T06:29:40;5.70;99.90
16829;DHT22;8531;48.078;11.968;2024-02-23T06:32:06;5.80;99.90
16829;DHT22;8531;48.078;11.968;2024-02-23T06:34:32;5.90;99.90
16829;DHT22;8531;48.078;11.968;2024-02-23T06:36:57;5.90;99.90
16829;DHT22;8531;48.078;11.968;2024-02-23T06:39:23;5.90;99.90
16829;DHT22;8531;48.078;11.968;2024-02-23T06:41:49;5.90;99.90
16829;DHT22;8531;48.078;11.968;2024-02-23T06:44:15;5.90;99.90
16829;DHT22;8531;48.078;11.968;2024-02-23T06:46:40;6.00;99.90
16829;DHT22;8531;48.078;11.968;2024-02-23T06:49:07;6.00;99.90
16829;DHT22;8531;48.078;11.968;2024-02-23T06:51:33;5.90;99.90
16829;DHT22;8531;48.078;11.968;2024-02-23T06:53:59;6.00;99.90
16829;DHT22;8531;48.078;11.968;2024-02-23T06:56:24;5.90;99.90
16829;DHT22;8531;48.078;11.968;2024-02-23T06:58:50;5.90;99.90
16829;DHT22;8531;48.078;11.968;2024-02-23T07:01:16;5.90;99.90
16829;DHT22;8531;48.078;11.968;2024-02-23T07:03:41;5.80;99.90
16829;DHT22;8531;48.078;11.968;2024-02-23T07:06:09;5.80;99.90
16829;DHT22;8531;48.078;11.968;2024-02-23T07:08:36;5.80;99.90
16829;DHT22;8531;48.078;11.968;2024-02-23T07:11:02;5.80;99.90
16829;DHT22;8531;48.078;11.968;2024-02-23T07:13:28;5.70;99.90
16829;DHT22;8531;48.078;11.968;2024-02-23T07:15:54;5.70;99.90
16829;DHT22;8531;48.078;11.968;2024-02-23T07:18:21;5.80;99.90
16829;DHT22;8531;48.078;11.968;2024-02-23T07:20:47;5.80;99.90
16829;DHT22;8531;48.078;11.968;2024-02-23T07:23:13;5.80;99.90
16829;DHT22;8531;48.078;11.968;2024-02-23T07:25:38;5.70;99.90
16829;DHT22;8531;48.078;11.968;2024-02-23T07:28:04;5.70;99.90
16829;DHT22;8531;48.078;11.968;2024-02-23T07:30:31;5.70;99.90
16829;DHT22;8531;48.078;11.968;2024-02-23T07:32:57;5.70;99.90
16829;DHT22;8531;48.078;11.968;2024-02-23T07:35:22;5.80;99.90
16829;DHT22;8531;48.078;11.968;2024-02-23T07:37:48;5.70;99.90
16829;DHT22;8531;48.078;11.968;2024-02-23T07:40:14;5.70;99.90
16829;DHT22;8531;48.078;11.968;2024-02-23T07:42:39;5.70;99.90
16829;DHT22;8531;48.078;11.968;2024-02-23T07:45:06;5.80;99.90
16829;DHT22;8531;48.078;11.968;2024-02-23T07:47:32;5.70;99.90
16829;DHT22;8531;48.078;11.968;2024-02-23T07:49:58;5.70;99.90
16829;DHT22;8531;48.078;11.968;2024-02-23T07:52:25;5.70;99.90
16829;DHT22;8531;48.078;11.968;2024-02-23T07:54:52;5.70;99.90
16829;DHT22;8531;48.078;11.968;2024-02-23T07:57:19;5.70;99.90
16829;DHT22;8531;48.078;11.968;2024-02-23T07:59:45;5.90;99.90
16829;DHT22;8531;48.078;11.968;2024-02-23T08:02:10;6.00;99.90
16829;DHT22;8531;48.078;11.968;2024-02-23T08:04:36;6.00;99.90
16829;DHT22;8531;48.078;11.968;2024-02-23T08:07:03;6.00;99.90
16829;DHT22;8531;48.078;11.968;2024-02-23T08:09:29;5.90;99.90
16829;DHT22;8531;48.078;11.968;2024-02-23T08:11:55;5.90;99.90
16829;DHT22;8531;48.078;11.968;2024-02-23T08:14:21;6.00;99.90
16829;DHT22;8531;48.078;11.968;2024-02-23T08:16:46;6.00;99.90
16829;DHT22;8531;48.078;11.968;2024-02-23T08:19:12;5.90;99.90
16829;DHT22;8531;48.078;11.968;2024-02-23T08:21:38;6.00;99.90
16829;DHT22;8531;48.078;11.968;2024-02-23T08:24:04;6.00;99.90
16829;DHT22;8531;48.078;11.968;2024-02-23T08:26:30;5.90;99.90
16829;DHT22;8531;48.078;11.968;2024-02-23T08:28:56;6.00;99.90
16829;DHT22;8531;48.078;11.968;2024-02-23T08:31:21;5.90;99.90
16829;DHT22;8531;48.078;11.968;2024-02-23T08:33:47;6.00;99.90
16829;DHT22;8531;48.078;11.968;2024-02-23T08:36:13;6.00;99.90
16829;DHT22;8531;48.078;11.968;2024-02-23T08:38:38;6.00;99.90
16829;DHT22;8531;48.078;11.968;2024-02-23T08:41:04;6.00;99.90
16829;DHT22;8531;48.078;11.968;2024-02-23T08:43:30;5.90;99.90
16829;DHT22;8531;48.078;11.968;2024-02-23T08:45:55;5.90;99.90
16829;DHT22;8531;48.078;11.968;2024-02-23T08:48:21;6.00;99.90
16829;DHT22;8531;48.078;11.968;2024-02-23T08:50:47;6.00;99.90
16829;DHT22;8531;48.078;11.968;2024-02-23T08:53:13;6.10;99.90
16829;DHT22;8531;48.078;11.968;2024-02-23T08:55:38;6.10;99.90
16829;DHT22;8531;48.078;11.968;2024-02-23T08:58:04;6.10;99.90
16829;DHT22;8531;48.078;11.968;2024-02-23T09:00:31;6.00;99.90
16829;DHT22;8531;48.078;11.968;2024-02-23T09:02:57;6.00;99.90
16829;DHT22;8531;48.078;11.968;2024-02-23T09:05:23;6.10;99.90
16829;DHT22;8531;48.078;11.968;2024-02-23T09:07:48;6.00;99.90
16829;DHT22;8531;48.078;11.968;2024-02-23T09:10:14;6.00;99.90
16829;DHT22;8531;48.078;11.968;2024-02-23T09:12:40;6.10;99.90
16829;DHT22;8531;48.078;11.968;2024-02-23T09:15:06;6.10;99.90
16829;DHT22;8531;48.078;11.968;2024-02-23T09:17:32;6.10;99.90
16829;DHT22;8531;48.078;11.968;2024-02-23T09:19:57;6.10;99.90
16829;DHT22;8531;48.078;11.968;2024-02-23T09:22:23;6.10;99.90
16829;DHT22;8531;48.078;11.968;2024-02-23T09:24:49;6.00;99.90
16829;DHT22;8531;48.078;11.968;2024-02-23T09:27:15;6.00;99.90
16829;DHT22;8531;48.078;11.968;2024-02-23T09:29:41;6.00;99.90
16829;DHT22;8531;48.078;11.968;2024-02-23T09:32:10;6.10;99.90
16829;DHT22;8531;48.078;11.968;2024-02-23T09:34:35;6.00;99.90
16829;DHT22;8531;48.078;11.968;2024-02-23T09:37:01;6.10;99.90
16829;DHT22;8531;48.078;11.968;2024-02-23T09:39:27;6.10;99.90
16829;DHT22;8531;48.078;11.968;2024-02-23T09:41:55;6.20;99.90
16829;DHT22;8531;48.078;11.968;2024-02-23T09:44:22;6.30;99.90
16829;DHT22;8531;48.078;11.968;2024-02-23T09:46:48;6.20;99.90
16829;DHT22;8531;48.078;11.968;2024-02-23T09:49:17;6.10;99.90
16829;DHT22;8531;48.078;11.968;2024-02-23T09:51:43;6.10;99.90
16829;DHT22;8531;48.078;11.968;2024-02-23T09:54:10;6.10;99.90
16829;DHT22;8531;48.078;11.968;2024-02-23T09:56:35;6.00;99.90
16829;DHT22;8531;48.078;11.968;2024-02-23T09:59:03;6.00;99.90
16829;DHT22;8531;48.078;11.968;2024-02-23T10:01:32;6.00;99.90
16829;DHT22;8531;48.078;11.968;2024-02-23T10:04:02;6.20;99.90
16829;DHT22;8531;48.078;11.968;2024-02-23T10:06:30;6.30;99.90
16829;DHT22;8531;48.078;11.968;2024-02-23T10:08:55;6.20;99.90
16829;DHT22;8531;48.078;11.968;2024-02-23T10:11:21;6.10;99.90
16829;DHT22;8531;48.078;11.968;2024-02-23T10:13:48;6.20;99.90
16829;DHT22;8531;48.078;11.968;2024-02-23T10:16:18;6.10;99.90
16829;DHT22;8531;48.078;11.968;2024-02-23T10:18:46;5.90;99.90
16829;DHT22;8531;48.078;11.968;2024-02-23T10:21:16;5.80;99.90
16829;DHT22;8531;48.078;11.968;2024-02-23T10:23:44;5.80;99.90
16829;DHT22;8531;48.078;11.968;2024-02-23T10:26:10;5.80;99.90
16829;DHT22;8531;48.078;11.968;2024-02-23T10:28:39;5.60;99.90
16829;DHT22;8531;48.078;11.968;2024-02-23T10:31:06;5.50;99.90
16829;DHT22;8531;48.078;11.968;2024-02-23T10:33:31;5.50;99.90
16829;DHT22;8531;48.078;11.968;2024-02-23T10:35:57;5.50;99.90
16829;DHT22;8531;48.078;11.968;2024-02-23T10:38:24;5.60;99.90
16829;DHT22;8531;48.078;11.968;2024-02-23T10:40:55;5.50;99.90
16829;DHT22;8531;48.078;11.968;2024-02-23T10:43:28;5.40;99.90
16829;DHT22;8531;48.078;11.968;2024-02-23T10:45:56;5.40;99.90
16829;DHT22;8531;48.078;11.968;2024-02-23T10:48:23;5.40;99.90
16829;DHT22;8531;48.078;11.968;2024-02-23T10:50:50;5.40;99.90
16829;DHT22;8531;48.078;11.968;2024-02-23T10:53:16;5.40;99.90
16829;DHT22;8531;48.078;11.968;2024-02-23T10:55:45;5.50;99.90
16829;DHT22;8531;48.078;11.968;2024-02-23T10:58:11;5.60;99.90
16829;DHT22;8531;48.078;11.968;2024-02-23T11:00:39;5.60;99.90
16829;DHT22;8531;48.078;11.968;2024-02-23T11:03:06;5.60;99.90
16829;DHT22;8531;48.078;11.968;2024-02-23T11:05:33;5.50;99.90
16829;DHT22;8531;48.078;11.968;2024-02-23T11:07:59;5.40;99.90
16829;DHT22;8531;48.078;11.968;2024-02-23T11:10:25;5.40;99.90
16829;DHT22;8531;48.078;11.968;2024-02-23T11:13:08;5.10;99.90
16829;DHT22;8531;48.078;11.968;2024-02-23T11:15:33;5.00;99.90
16829;DHT22;8531;48.078;11.968;2024-02-23T11:18:30;5.10;99.90
16829;DHT22;8531;48.078;11.968;2024-02-23T11:21:00;5.10;99.90
16829;DHT22;8531;48.078;11.968;2024-02-23T11:23:27;5.10;99.90
16829;DHT22;8531;48.078;11.968;2024-02-23T11:28:28;5.20;99.90
16829;DHT22;8531;48.078;11.968;2024-02-23T11:30:54;5.30;99.90
16829;DHT22;8531;48.078;11.968;2024-02-23T11:33:26;5.30;99.90
16829;DHT22;8531;48.078;11.968;2024-02-23T11:35:52;5.30;99.90
16829;DHT22;8531;48.078;11.968;2024-02-23T11:38:21;5.20;99.90
16829;DHT22;8531;48.078;11.968;2024-02-23T11:40:49;5.10;99.90
16829;DHT22;8531;48.078;11.968;2024-02-23T11:43:17;5.10;99.90
16829;DHT22;8531;48.078;11.968;2024-02-23T11:45:47;5.00;99.90
16829;DHT22;8531;48.078;11.968;2024-02-23T11:48:12;4.90;99.90
16829;DHT22;8531;48.078;11.968;2024-02-23T11:50:38;4.80;99.90
16829;DHT22;8531;48.078;11.968;2024-02-23T11:53:04;4.70;99.90
16829;DHT22;8531;48.078;11.968;2024-02-23T11:55:30;4.80;99.90
16829;DHT22;8531;48.078;11.968;2024-02-23T11:57:55;4.80;99.90
16829;DHT22;8531;48.078;11.968;2024-02-23T12:00:23;4.90;99.90
16829;DHT22;8531;48.078;11.968;2024-02-23T12:02:49;4.90;99.90
16829;DHT22;8531;48.078;11.968;2024-02-23T12:05:16;5.00;99.90
16829;DHT22;8531;48.078;11.968;2024-02-23T12:07:42;5.00;99.90
16829;DHT22;8531;48.078;11.968;2024-02-23T12:10:08;4.90;99.90
16829;DHT22;8531;48.078;11.968;2024-02-23T12:12:36;4.90;99.90
16829;DHT22;8531;48.078;11.968;2024-02-23T12:15:02;4.90;99.90
16829;DHT22;8531;48.078;11.968;2024-02-23T12:17:27;5.10;99.90
16829;DHT22;8531;48.078;11.968;2024-02-23T12:20:01;5.30;99.90
16829;DHT22;8531;48.078;11.968;2024-02-23T12:22:27;5.40;99.90
16829;DHT22;8531;48.078;11.968;2024-02-23T12:24:52;5.50;99.90
16829;DHT22;8531;48.078;11.968;2024-02-23T12:27:18;5.50;99.90
16829;DHT22;8531;48.078;11.968;2024-02-23T12:29:54;5.40;99.90
16829;DHT22;8531;48.078;11.968;2024-02-23T12:32:20;5.40;99.90
16829;DHT22;8531;48.078;11.968;2024-02-23T12:34:47;5.30;99.90
16829;DHT22;8531;48.078;11.968;2024-02-23T12:37:16;5.30;99.90
16829;DHT22;8531;48.078;11.968;2024-02-23T12:39:43;5.30;99.90
16829;DHT22;8531;48.078;11.968;2024-02-23T12:42:08;5.30;99.90
16829;DHT22;8531;48.078;11.968;2024-02-23T12:44:34;5.40;99.90
16829;DHT22;8531;48.078;11.968;2024-02-23T12:47:00;5.20;99.90
16829;DHT22;8531;48.078;11.968;2024-02-23T12:49:26;5.30;99.90
16829;DHT22;8531;48.078;11.968;2024-02-23T12:51:52;5.00;99.90
16829;DHT22;8531;48.078;11.968;2024-02-23T12:54:18;5.00;99.90
16829;DHT22;8531;48.078;11.968;2024-02-23T12:56:43;5.00;99.90
16829;DHT22;8531;48.078;11.968;2024-02-23T12:59:09;5.10;99.90
16829;DHT22;8531;48.078;11.968;2024-02-23T13:01:35;5.30;99.90
16829;DHT22;8531;48.078;11.968;2024-02-23T13:04:03;5.40;99.90
16829;DHT22;8531;48.078;11.968;2024-02-23T13:06:38;5.50;99.90
16829;DHT22;8531;48.078;11.968;2024-02-23T13:09:05;5.50;99.90
16829;DHT22;8531;48.078;11.968;2024-02-23T13:11:34;5.40;99.90
16829;DHT22;8531;48.078;11.968;2024-02-23T13:14:00;5.40;99.90
16829;DHT22;8531;48.078;11.968;2024-02-23T13:16:25;5.30;99.90
16829;DHT22;8531;48.078;11.968;2024-02-23T13:18:51;5.20;99.90
16829;DHT22;8531;48.078;11.968;2024-02-23T13:21:17;5.20;99.90
16829;DHT22;8531;48.078;11.968;2024-02-23T13:23:43;5.30;99.90
16829;DHT22;8531;48.078;11.968;2024-02-23T13:26:09;5.30;99.90
16829;DHT22;8531;48.078;11.968;2024-02-23T13:28:36;5.30;99.90
16829;DHT22;8531;48.078;11.968;2024-02-23T13:31:02;5.20;99.90
16829;DHT22;8531;48.078;11.968;2024-02-23T13:33:28;5.20;99.90
16829;DHT22;8531;48.078;11.968;2024-02-23T13:35:54;5.10;99.90
16829;DHT22;8531;48.078;11.968;2024-02-23T13:38:20;5.10;99.90
16829;DHT22;8531;48.078;11.968;2024-02-23T13:40:47;5.00;99.90
16829;DHT22;8531;48.078;11.968;2024-02-23T13:43:12;5.00;99.90
16829;DHT22;8531;48.078;11.968;2024-02-23T13:45:51;4.90;99.90
16829;DHT22;8531;48.078;11.968;2024-02-23T13:48:18;5.00;99.90
16829;DHT22;8531;48.078;11.968;2024-02-23T13:50:46;5.10;99.90
16829;DHT22;8531;48.078;11.968;2024-02-23T13:53:12;5.10;99.90
16829;DHT22;8531;48.078;11.968;2024-02-23T13:55:38;5.10;99.90
16829;DHT22;8531;48.078;11.968;2024-02-23T13:58:04;5.00;99.90
16829;DHT22;8531;48.078;11.968;2024-02-23T14:00:30;5.00;99.90
16829;DHT22;8531;48.078;11.968;2024-02-23T14:02:56;5.10;99.90
16829;DHT22;8531;48.078;11.968;2024-02-23T14:05:22;5.00;99.90
16829;DHT22;8531;48.078;11.968;2024-02-23T14:07:51;5.00;99.90
16829;DHT22;8531;48.078;11.968;2024-02-23T14:10:17;4.80;99.90
16829;DHT22;8531;48.078;11.968;2024-02-23T14:12:42;4.70;99.90
16829;DHT22;8531;48.078;11.968;2024-02-23T14:15:09;4.70;99.90
16829;DHT22;8531;48.078;11.968;2024-02-23T14:17:35;4.70;99.90
16829;DHT22;8531;48.078;11.968;2024-02-23T14:20:01;4.80;99.90
16829;DHT22;8531;48.078;11.968;2024-02-23T14:22:28;4.80;99.90
16829;DHT22;8531;48.078;11.968;2024-02-23T14:24:54;4.90;99.90
16829;DHT22;8531;48.078;11.968;2024-02-23T14:27:21;4.90;99.90
16829;DHT22;8531;48.078;11.968;2024-02-23T14:29:46;4.90;99.90
16829;DHT22;8531;48.078;11.968;2024-02-23T14:32:16;4.90;99.90
16829;DHT22;8531;48.078;11.968;2024-02-23T14:34:42;4.90;99.90
16829;DHT22;8531;48.078;11.968;2024-02-23T14:37:08;4.90;99.90
16829;DHT22;8531;48.078;11.968;2024-02-23T14:39:34;4.90;99.90
16829;DHT22;8531;48.078;11.968;2024-02-23T14:42:00;4.90;99.90
16829;DHT22;8531;48.078;11.968;2024-02-23T14:44:26;4.90;99.90
16829;DHT22;8531;48.078;11.968;2024-02-23T14:46:52;4.80;99.90
16829;DHT22;8531;48.078;11.968;2024-02-23T14:49:18;4.80;99.90
16829;DHT22;8531;48.078;11.968;2024-02-23T14:51:43;4.80;99.90
16829;DHT22;8531;48.078;11.968;2024-02-23T14:54:12;4.80;99.90
16829;DHT22;8531;48.078;11.968;2024-02-23T14:56:38;4.80;99.90
16829;DHT22;8531;48.078;11.968;2024-02-23T14:59:05;4.80;99.90
16829;DHT22;8531;48.078;11.968;2024-02-23T15:01:37;4.70;99.90
16829;DHT22;8531;48.078;11.968;2024-02-23T15:04:04;4.70;99.90
16829;DHT22;8531;48.078;11.968;2024-02-23T15:06:31;4.60;99.90
16829;DHT22;8531;48.078;11.968;2024-02-23T15:08:56;4.50;99.90
16829;DHT22;8531;48.078;11.968;2024-02-23T15:11:23;4.60;99.90
16829;DHT22;8531;48.078;11.968;2024-02-23T15:13:49;4.60;99.90
16829;DHT22;8531;48.078;11.968;2024-02-23T15:16:14;4.60;99.90
16829;DHT22;8531;48.078;11.968;2024-02-23T15:18:40;4.40;99.90
16829;DHT22;8531;48.078;11.968;2024-02-23T15:21:06;4.30;99.90
16829;DHT22;8531;48.078;11.968;2024-02-23T15:23:32;4.40;99.90
16829;DHT22;8531;48.078;11.968;2024-02-23T15:25:58;4.30;99.90
16829;DHT22;8531;48.078;11.968;2024-02-23T15:28:23;4.30;99.90
16829;DHT22;8531;48.078;11.968;2024-02-23T15:30:50;4.30;99.90
16829;DHT22;8531;48.078;11.968;2024-02-23T15:33:17;4.20;99.90
16829;DHT22;8531;48.078;11.968;2024-02-23T15:35:43;4.10;99.90
16829;DHT22;8531;48.078;11.968;2024-02-23T15:38:08;4.10;99.90
16829;DHT22;8531;48.078;11.968;2024-02-23T15:40:34;4.10;99.90
16829;DHT22;8531;48.078;11.968;2024-02-23T15:43:00;4.00;99.90